createdAt,value
2018-07-07T00:00:23.060Z,11.90
2018-07-07T00:02:50.476Z,11.57
2018-07-07T00:05:17.824Z,11.03
2018-07-07T00:07:45.168Z,6.20
2018-07-07T00:10:13.661Z,12.23
2018-07-07T00:12:41.970Z,11.80
2018-07-07T00:15:14.690Z,10.30
2018-07-07T00:17:42.448Z,10.80
2018-07-07T00:20:09.906Z,19.23
2018-07-07T00:22:37.262Z,15.17
2018-07-07T00:25:04.723Z,17.33
2018-07-07T00:27:32.116Z,12.63
2018-07-07T00:29:59.846Z,6.57
2018-07-07T00:32:27.230Z,9.53
2018-07-07T00:34:54.583Z,11.97
2018-07-07T00:37:21.988Z,10.93
2018-07-07T00:39:49.327Z,12.53
2018-07-07T00:42:16.652Z,14.77
2018-07-07T00:44:44.066Z,18.63
2018-07-07T00:47:11.408Z,12.90
2018-07-07T00:49:38.779Z,11.67
2018-07-07T00:52:06.189Z,13.00
2018-07-07T00:54:33.599Z,11.90
2018-07-07T00:57:01.094Z,15.70
2018-07-07T00:59:28.483Z,11.70
2018-07-07T01:01:55.857Z,17.17
2018-07-07T01:04:23.298Z,9.77
2018-07-07T01:06:51.156Z,11.27
2018-07-07T01:09:18.558Z,16.20
2018-07-07T01:11:45.929Z,12.53
2018-07-07T01:14:13.311Z,9.50
2018-07-07T01:16:40.657Z,16.30
2018-07-07T01:19:07.964Z,12.77
2018-07-07T01:21:35.394Z,16.10
2018-07-07T01:24:02.784Z,12.53
2018-07-07T01:26:30.121Z,20.57
2018-07-07T01:28:57.592Z,17.13
2018-07-07T01:31:24.938Z,9.90
2018-07-07T01:33:52.257Z,18.50
2018-07-07T01:36:19.976Z,11.00
2018-07-07T01:38:47.295Z,13.70
2018-07-07T01:41:14.632Z,14.70
2018-07-07T01:43:42.050Z,18.40
2018-07-07T01:46:09.381Z,11.93
2018-07-07T01:48:36.772Z,17.03
2018-07-07T01:51:04.146Z,14.43
2018-07-07T01:53:31.560Z,20.00
2018-07-07T01:55:59.528Z,18.47
2018-07-07T01:58:26.937Z,11.07
2018-07-07T02:00:54.860Z,17.57
2018-07-07T02:03:22.184Z,17.23
2018-07-07T02:05:49.586Z,11.83
2018-07-07T02:08:16.935Z,14.43
2018-07-07T02:10:44.335Z,17.10
2018-07-07T02:13:11.730Z,15.13
2018-07-07T02:15:39.109Z,12.93
2018-07-07T02:18:06.798Z,13.53
2018-07-07T02:20:34.244Z,8.90
2018-07-07T02:23:01.883Z,14.90
2018-07-07T02:25:29.242Z,14.00
2018-07-07T02:27:56.665Z,14.03
2018-07-07T02:30:23.980Z,15.80
2018-07-07T02:32:51.291Z,25.37
2018-07-07T02:35:18.674Z,18.80
2018-07-07T02:37:46.004Z,23.23
2018-07-07T02:40:13.404Z,17.63
2018-07-07T02:42:40.787Z,15.63
2018-07-07T02:45:08.120Z,18.23
2018-07-07T02:47:35.394Z,22.93
2018-07-07T02:50:02.786Z,13.73
2018-07-07T02:52:30.201Z,21.67
2018-07-07T02:54:57.496Z,18.43
2018-07-07T02:57:24.821Z,15.07
2018-07-07T02:59:52.149Z,17.03
2018-07-07T03:02:19.541Z,20.03
2018-07-07T03:04:46.883Z,14.03
2018-07-07T03:07:14.213Z,16.87
2018-07-07T03:09:41.589Z,22.00
2018-07-07T03:12:08.934Z,27.10
2018-07-07T03:14:36.536Z,15.73
2018-07-07T03:17:03.874Z,15.37
2018-07-07T03:19:31.220Z,14.90
2018-07-07T03:21:58.607Z,17.90
2018-07-07T03:24:25.921Z,14.13
2018-07-07T03:26:53.327Z,15.77
2018-07-07T03:29:20.704Z,16.30
2018-07-07T03:31:48.024Z,14.73
2018-07-07T03:34:15.955Z,16.70
2018-07-07T03:36:43.348Z,16.70
2018-07-07T03:39:10.767Z,22.80
2018-07-07T03:41:38.431Z,21.57
2018-07-07T03:44:05.736Z,19.27
2018-07-07T03:46:33.120Z,13.83
2018-07-07T03:49:00.672Z,11.13
2018-07-07T03:51:28.044Z,14.17
2018-07-07T03:53:55.399Z,20.73
2018-07-07T03:56:22.815Z,21.57
2018-07-07T03:58:50.430Z,11.50
2018-07-07T04:01:17.759Z,16.33
2018-07-07T04:03:45.176Z,22.47
2018-07-07T04:06:12.762Z,14.97
2018-07-07T04:08:40.325Z,20.97
2018-07-07T04:11:07.749Z,19.07
2018-07-07T04:13:35.067Z,20.57
2018-07-07T04:16:02.383Z,16.10
2018-07-07T04:18:32.154Z,15.57
2018-07-07T04:21:00.160Z,20.23
2018-07-07T04:23:27.505Z,16.93
2018-07-07T04:25:54.936Z,11.73
2018-07-07T04:28:22.325Z,17.70
2018-07-07T04:30:49.638Z,12.57
2018-07-07T04:33:16.988Z,15.67
2018-07-07T04:35:44.360Z,14.37
2018-07-07T04:38:11.751Z,16.83
2018-07-07T04:40:39.168Z,12.30
2018-07-07T04:43:06.569Z,12.67
2018-07-07T04:45:33.927Z,9.23
2018-07-07T04:48:01.347Z,33.77
2018-07-07T04:50:28.731Z,15.67
2018-07-07T04:52:56.072Z,20.13
2018-07-07T04:55:23.377Z,19.90
2018-07-07T04:57:51.122Z,15.20
2018-07-07T05:00:18.493Z,13.63
2018-07-07T05:02:45.918Z,16.70
2018-07-07T05:05:13.431Z,17.50
2018-07-07T05:07:41.210Z,15.87
2018-07-07T05:10:09.170Z,12.93
2018-07-07T05:12:36.633Z,22.87
2018-07-07T05:15:04.061Z,17.03
2018-07-07T05:17:31.453Z,14.43
2018-07-07T05:19:58.889Z,22.80
2018-07-07T05:22:26.248Z,17.93
2018-07-07T05:24:53.717Z,20.33
2018-07-07T05:27:21.169Z,27.23
2018-07-07T05:29:48.605Z,23.80
2018-07-07T05:32:16.070Z,20.00
2018-07-07T05:34:43.406Z,18.20
2018-07-07T05:37:10.948Z,17.23
2018-07-07T05:39:38.297Z,14.87
2018-07-07T05:42:05.735Z,16.67
2018-07-07T05:44:33.148Z,12.03
2018-07-07T05:47:00.593Z,13.27
2018-07-07T05:49:27.972Z,19.97
2018-07-07T05:51:55.388Z,20.47
2018-07-07T05:54:22.739Z,19.60
2018-07-07T05:56:50.099Z,17.40
2018-07-07T05:59:17.473Z,21.23
2018-07-07T06:01:44.843Z,17.40
2018-07-07T06:04:12.226Z,14.10
2018-07-07T06:06:39.680Z,14.87
2018-07-07T06:09:07.115Z,14.10
2018-07-07T06:11:34.822Z,14.27
2018-07-07T06:14:02.237Z,13.83
2018-07-07T06:16:29.594Z,21.63
2018-07-07T06:18:56.987Z,10.23
2018-07-07T06:21:24.447Z,11.50
2018-07-07T06:23:51.867Z,15.47
2018-07-07T06:26:19.219Z,16.47
2018-07-07T06:28:46.589Z,12.90
2018-07-07T06:31:14.003Z,9.77
2018-07-07T06:33:41.392Z,14.43
2018-07-07T06:36:08.831Z,27.03
2018-07-07T06:38:36.228Z,15.80
2018-07-07T06:41:03.569Z,15.70
2018-07-07T06:43:31.482Z,14.40
2018-07-07T06:45:58.798Z,13.57
2018-07-07T06:48:26.262Z,14.77
2018-07-07T06:50:53.638Z,12.50
2018-07-07T06:53:21.131Z,19.27
2018-07-07T06:55:48.557Z,13.17
2018-07-07T06:58:15.901Z,17.40
2018-07-07T07:00:43.301Z,11.57
2018-07-07T07:03:11.593Z,8.70
2018-07-07T07:05:38.902Z,12.47
2018-07-07T07:08:06.297Z,13.80
2018-07-07T07:10:33.622Z,13.23
2018-07-07T07:13:01.415Z,9.57
2018-07-07T07:15:29.031Z,13.47
2018-07-07T07:17:56.589Z,9.30
2018-07-07T07:20:24.068Z,13.83
2018-07-07T07:22:52.057Z,11.67
2018-07-07T07:25:19.407Z,9.73
2018-07-07T07:27:46.801Z,13.37
2018-07-07T07:30:14.228Z,14.60
2018-07-07T07:32:41.619Z,11.93
2018-07-07T07:35:09.036Z,11.77
2018-07-07T07:37:36.442Z,8.00
2018-07-07T07:40:03.832Z,14.20
2018-07-07T07:42:31.172Z,14.20
2018-07-07T07:44:59.085Z,10.00
2018-07-07T07:47:26.388Z,11.80
2018-07-07T07:49:53.785Z,16.37
2018-07-07T07:52:21.135Z,25.27
2018-07-07T07:54:48.445Z,8.97
2018-07-07T07:57:15.872Z,11.90
2018-07-07T07:59:43.250Z,11.07
2018-07-07T08:02:10.581Z,10.83
2018-07-07T08:04:37.963Z,18.43
2018-07-07T08:07:05.352Z,13.37
2018-07-07T08:09:32.619Z,16.63
2018-07-07T08:11:59.993Z,11.53
2018-07-07T08:14:27.335Z,12.70
2018-07-07T08:16:54.634Z,13.97
2018-07-07T08:19:21.947Z,11.67
2018-07-07T08:21:49.719Z,11.53
2018-07-07T08:24:17.044Z,14.20
2018-07-07T08:26:44.355Z,18.17
2018-07-07T08:29:11.698Z,7.73
2018-07-07T08:31:39.124Z,10.97
2018-07-07T08:34:06.471Z,10.00
2018-07-07T08:36:33.958Z,9.90
2018-07-07T08:39:01.348Z,25.70
2018-07-07T08:41:28.686Z,15.93
2018-07-07T08:43:56.111Z,9.10
2018-07-07T08:46:23.479Z,10.80
2018-07-07T08:48:50.811Z,7.73
2018-07-07T08:51:18.189Z,14.03
2018-07-07T08:53:45.498Z,11.83
2018-07-07T08:56:12.880Z,15.30
2018-07-07T08:58:40.333Z,10.60
2018-07-07T09:01:07.736Z,9.40
2018-07-07T09:03:35.277Z,10.40
2018-07-07T09:06:02.686Z,7.63
2018-07-07T09:08:30.051Z,10.57
2018-07-07T09:10:57.404Z,8.80
2018-07-07T09:13:24.767Z,6.43
2018-07-07T09:15:52.122Z,10.20
2018-07-07T09:18:19.486Z,13.57
2018-07-07T09:20:46.840Z,8.67
2018-07-07T09:23:14.207Z,11.70
2018-07-07T09:25:41.510Z,9.87
2018-07-07T09:28:08.919Z,8.00
2018-07-07T09:30:36.263Z,11.87
2018-07-07T09:33:03.612Z,14.53
2018-07-07T09:35:31.084Z,5.50
2018-07-07T09:37:58.406Z,7.93
2018-07-07T09:40:25.754Z,8.83
2018-07-07T09:42:53.182Z,7.60
2018-07-07T09:45:20.604Z,11.50
2018-07-07T09:47:47.968Z,5.33
2018-07-07T09:50:15.278Z,6.63
2018-07-07T09:52:43.095Z,6.50
2018-07-07T09:55:10.551Z,8.13
2018-07-07T09:57:38.032Z,7.17
2018-07-07T10:00:09.995Z,6.87
2018-07-07T10:02:37.384Z,5.03
2018-07-07T10:05:04.783Z,5.67
2018-07-07T10:07:32.227Z,9.90
2018-07-07T10:09:59.618Z,5.83
2018-07-07T10:12:27.020Z,7.40
2018-07-07T10:14:54.430Z,16.53
2018-07-07T10:17:21.797Z,6.67
2018-07-07T10:19:49.169Z,9.40
2018-07-07T10:22:16.510Z,7.20
2018-07-07T10:24:43.851Z,4.60
2018-07-07T10:27:11.256Z,16.63
2018-07-07T10:29:38.701Z,3.67
2018-07-07T10:32:06.069Z,7.07
2018-07-07T10:34:33.382Z,9.83
2018-07-07T10:37:00.767Z,6.40
2018-07-07T10:39:28.092Z,6.23
2018-07-07T10:41:55.489Z,7.03
2018-07-07T10:44:22.826Z,4.43
2018-07-07T10:46:50.092Z,9.63
2018-07-07T10:49:17.494Z,5.50
2018-07-07T10:51:44.836Z,12.60
2018-07-07T10:54:12.162Z,8.23
2018-07-07T10:56:39.601Z,4.77
2018-07-07T10:59:06.946Z,3.77
2018-07-07T11:01:34.265Z,3.10
2018-07-07T11:04:01.715Z,3.70
2018-07-07T11:06:29.175Z,6.07
2018-07-07T11:08:56.544Z,7.00
2018-07-07T11:11:23.852Z,7.93
2018-07-07T11:13:51.306Z,3.93
2018-07-07T11:16:18.617Z,3.43
2018-07-07T11:18:45.944Z,4.33
2018-07-07T11:21:13.294Z,8.93
2018-07-07T11:23:40.722Z,2.83
2018-07-07T11:26:08.119Z,5.50
2018-07-07T11:28:35.497Z,4.17
2018-07-07T11:31:02.771Z,3.73
2018-07-07T11:33:30.107Z,4.27
2018-07-07T11:35:57.372Z,6.83
2018-07-07T11:38:24.720Z,5.30
2018-07-07T11:40:52.044Z,7.00
2018-07-07T11:43:19.388Z,3.93
2018-07-07T11:45:46.730Z,6.67
2018-07-07T11:48:14.132Z,4.23
2018-07-07T11:50:41.506Z,5.53
2018-07-07T11:53:08.889Z,3.17
2018-07-07T11:55:36.843Z,10.70
2018-07-07T11:58:04.295Z,4.53
2018-07-07T12:00:31.659Z,3.90
2018-07-07T12:02:59.026Z,3.17
2018-07-07T12:05:26.370Z,8.87
2018-07-07T12:08:00.831Z,2.77
2018-07-07T12:10:21.125Z,2.93
2018-07-07T12:12:48.451Z,8.23
2018-07-07T12:15:15.780Z,7.20
2018-07-07T12:17:43.139Z,2.33
2018-07-07T12:20:10.455Z,4.70
2018-07-07T12:22:37.769Z,5.70
2018-07-07T12:25:05.177Z,5.40
2018-07-07T12:27:32.478Z,7.30
2018-07-07T12:29:59.868Z,2.73
2018-07-07T12:32:27.282Z,2.50
2018-07-07T12:34:54.591Z,3.67
2018-07-07T12:37:21.975Z,7.53
2018-07-07T12:39:49.306Z,7.77
2018-07-07T12:42:16.600Z,7.47
2018-07-07T12:44:44.621Z,3.30
2018-07-07T12:47:11.918Z,5.60
2018-07-07T12:49:39.264Z,1.50
2018-07-07T12:52:06.868Z,3.23
2018-07-07T12:54:34.259Z,1.80
2018-07-07T12:57:01.586Z,2.00
2018-07-07T12:59:28.899Z,6.00
2018-07-07T13:01:56.285Z,7.43
2018-07-07T13:04:23.602Z,2.67
2018-07-07T13:06:50.945Z,7.60
2018-07-07T13:09:18.294Z,7.20
2018-07-07T13:11:45.555Z,6.10
2018-07-07T13:14:12.913Z,1.87
2018-07-07T13:16:40.391Z,4.17
2018-07-07T13:19:07.824Z,3.93
2018-07-07T13:21:35.185Z,2.60
2018-07-07T13:24:02.528Z,4.80
2018-07-07T13:26:29.982Z,4.00
2018-07-07T13:28:57.488Z,6.90
2018-07-07T13:31:24.979Z,4.07
2018-07-07T13:33:52.290Z,3.90
2018-07-07T13:36:19.565Z,2.73
2018-07-07T13:38:46.995Z,3.33
2018-07-07T13:41:14.327Z,7.70
2018-07-07T13:43:41.679Z,8.80
2018-07-07T13:46:08.974Z,11.23
2018-07-07T13:48:36.318Z,3.57
2018-07-07T13:51:03.894Z,4.40
2018-07-07T13:53:31.510Z,3.00
2018-07-07T13:55:58.881Z,4.97
2018-07-07T13:58:26.495Z,6.63
2018-07-07T14:00:53.832Z,8.20
2018-07-07T14:03:21.157Z,3.80
2018-07-07T14:05:48.515Z,4.97
2018-07-07T14:08:15.848Z,7.07
2018-07-07T14:10:43.135Z,3.23
2018-07-07T14:13:10.436Z,3.23
2018-07-07T14:15:37.792Z,5.47
2018-07-07T14:18:05.200Z,2.73
2018-07-07T14:20:32.585Z,6.13
2018-07-07T14:23:00.038Z,6.77
2018-07-07T14:25:27.427Z,3.57
2018-07-07T14:27:54.807Z,5.50
2018-07-07T14:30:22.209Z,3.33
2018-07-07T14:32:49.628Z,3.13
2018-07-07T14:35:16.969Z,6.23
2018-07-07T14:37:44.568Z,3.57
2018-07-07T14:40:11.853Z,6.27
2018-07-07T14:42:45.497Z,10.97
2018-07-07T14:45:20.748Z,8.07
2018-07-07T14:47:49.157Z,3.70
2018-07-07T14:50:16.759Z,4.40
2018-07-07T14:52:44.641Z,3.87
2018-07-07T14:55:12.753Z,5.20
2018-07-07T14:57:40.415Z,3.53
2018-07-07T15:00:07.811Z,6.73
2018-07-07T15:02:35.562Z,6.30
2018-07-07T15:05:03.457Z,6.90
2018-07-07T15:07:31.036Z,3.03
2018-07-07T15:09:58.440Z,8.70
2018-07-07T15:12:25.720Z,4.33
2018-07-07T15:14:53.052Z,3.93
2018-07-07T15:17:20.535Z,4.37
2018-07-07T15:19:47.861Z,4.53
2018-07-07T15:22:15.501Z,3.43
2018-07-07T15:24:43.043Z,3.57
2018-07-07T15:27:10.366Z,2.23
2018-07-07T15:29:37.757Z,5.67
2018-07-07T15:32:05.205Z,6.50
2018-07-07T15:34:32.591Z,3.33
2018-07-07T15:37:00.584Z,5.20
2018-07-07T15:39:27.929Z,3.00
2018-07-07T15:41:55.276Z,7.17
2018-07-07T15:44:22.727Z,9.27
2018-07-07T15:46:50.183Z,4.67
2018-07-07T15:49:17.555Z,6.63
2018-07-07T15:51:45.014Z,2.20
2018-07-07T15:54:12.404Z,12.87
2018-07-07T15:56:39.734Z,3.73
2018-07-07T15:59:07.079Z,15.17
2018-07-07T16:01:34.425Z,4.40
2018-07-07T16:04:01.842Z,4.63
2018-07-07T16:06:29.208Z,6.90
2018-07-07T16:08:56.578Z,5.20
2018-07-07T16:11:23.996Z,4.00
2018-07-07T16:13:51.295Z,5.37
2018-07-07T16:16:18.708Z,9.80
2018-07-07T16:18:46.079Z,4.10
2018-07-07T16:21:13.464Z,6.50
2018-07-07T16:23:40.896Z,3.20
2018-07-07T16:26:08.243Z,5.50
2018-07-07T16:28:35.755Z,8.80
2018-07-07T16:31:03.132Z,4.13
2018-07-07T16:33:30.543Z,10.17
2018-07-07T16:35:57.984Z,5.17
2018-07-07T16:38:26.250Z,5.10
2018-07-07T16:40:53.760Z,6.33
2018-07-07T16:43:21.374Z,6.20
2018-07-07T16:45:48.761Z,5.53
2018-07-07T16:48:16.167Z,7.87
2018-07-07T16:50:43.575Z,12.70
2018-07-07T16:53:11.149Z,9.13
2018-07-07T16:55:38.503Z,7.10
2018-07-07T16:58:05.851Z,11.07
2018-07-07T17:00:34.781Z,14.77
2018-07-07T17:03:02.192Z,12.10
2018-07-07T17:05:29.579Z,14.70
2018-07-07T17:07:56.974Z,9.83
2018-07-07T17:10:24.333Z,19.67
2018-07-07T17:12:51.856Z,11.37
2018-07-07T17:15:19.252Z,10.80
2018-07-07T17:17:46.922Z,6.70
2018-07-07T17:20:14.261Z,8.70
2018-07-07T17:22:42.041Z,11.17
2018-07-07T17:25:09.520Z,9.17
2018-07-07T17:27:36.820Z,8.83
2018-07-07T17:30:04.219Z,5.90
2018-07-07T17:32:31.612Z,8.93
2018-07-07T17:34:59.036Z,13.20
2018-07-07T17:37:26.571Z,10.10
2018-07-07T17:39:53.995Z,9.17
2018-07-07T17:42:21.419Z,10.90
2018-07-07T17:44:48.835Z,8.10
2018-07-07T17:47:16.214Z,8.03
2018-07-07T17:49:43.576Z,9.43
2018-07-07T17:52:10.948Z,11.70
2018-07-07T17:54:38.810Z,6.27
2018-07-07T17:57:06.123Z,8.63
2018-07-07T17:59:33.468Z,9.20
2018-07-07T18:02:00.833Z,15.57
2018-07-07T18:04:28.243Z,9.90
2018-07-07T18:06:55.640Z,7.93
2018-07-07T18:09:23.002Z,10.83
2018-07-07T18:11:50.370Z,8.70
2018-07-07T18:14:17.756Z,9.03
2018-07-07T18:16:45.095Z,5.10
2018-07-07T18:19:12.438Z,9.60
2018-07-07T18:21:39.748Z,9.07
2018-07-07T18:24:07.129Z,12.13
2018-07-07T18:26:34.479Z,11.83
2018-07-07T18:29:01.897Z,9.33
2018-07-07T18:31:29.281Z,6.93
2018-07-07T18:33:56.629Z,8.80
2018-07-07T18:36:24.007Z,12.93
2018-07-07T18:38:51.407Z,10.67
2018-07-07T18:41:18.708Z,7.83
2018-07-07T18:43:46.118Z,5.90
2018-07-07T18:46:13.408Z,9.77
2018-07-07T18:48:40.801Z,4.87
2018-07-07T18:51:08.124Z,11.50
2018-07-07T18:53:35.492Z,8.57
2018-07-07T18:56:02.791Z,9.87
2018-07-07T18:58:30.163Z,12.40
2018-07-07T19:00:57.526Z,8.10
2018-07-07T19:03:24.902Z,9.53
2018-07-07T19:05:52.219Z,11.60
2018-07-07T19:08:19.556Z,11.63
2018-07-07T19:10:46.904Z,8.93
2018-07-07T19:13:14.300Z,6.93
2018-07-07T19:15:44.800Z,6.87
2018-07-07T19:18:12.252Z,13.27
2018-07-07T19:20:45.304Z,13.40
2018-07-07T19:23:18.368Z,9.50
2018-07-07T19:25:52.034Z,9.77
2018-07-07T19:28:19.427Z,11.10
2018-07-07T19:30:46.803Z,8.50
2018-07-07T19:33:20.088Z,9.60
2018-07-07T19:35:53.128Z,11.40
2018-07-07T19:38:21.222Z,7.80
2018-07-07T19:40:48.639Z,6.43
2018-07-07T19:43:16.061Z,12.83
2018-07-07T19:45:43.484Z,7.83
2018-07-07T19:48:10.824Z,13.17
2018-07-07T19:50:38.194Z,19.57
2018-07-07T19:53:05.507Z,7.83
2018-07-07T19:55:32.831Z,9.50
2018-07-07T19:58:00.218Z,20.67
2018-07-07T20:00:27.544Z,8.10
2018-07-07T20:02:54.887Z,14.97
2018-07-07T20:05:22.195Z,8.40
2018-07-07T20:07:49.496Z,3.63
2018-07-07T20:10:16.971Z,9.40
2018-07-07T20:12:44.423Z,10.87
2018-07-07T20:15:11.793Z,15.40
2018-07-07T20:18:11.047Z,12.83
2018-07-07T20:20:44.120Z,12.20
2018-07-07T20:23:13.662Z,13.50
2018-07-07T20:25:41.106Z,13.10
2018-07-07T20:28:14.261Z,9.13
2018-07-07T20:30:41.738Z,8.93
2018-07-07T20:33:09.204Z,12.20
2018-07-07T20:35:36.679Z,10.30
2018-07-07T20:38:03.961Z,8.37
2018-07-07T20:40:31.420Z,10.20
2018-07-07T20:42:58.846Z,11.13
2018-07-07T20:45:26.333Z,8.93
2018-07-07T20:47:54.584Z,15.43
2018-07-07T20:50:22.105Z,11.33
2018-07-07T20:52:49.467Z,8.50
2018-07-07T20:55:16.906Z,10.17
2018-07-07T20:57:44.272Z,17.77
2018-07-07T21:00:11.638Z,8.00
2018-07-07T21:02:39.090Z,9.73
2018-07-07T21:05:06.375Z,8.30
2018-07-07T21:07:34.257Z,8.30
2018-07-07T21:10:01.845Z,9.80
2018-07-07T21:12:29.465Z,6.83
2018-07-07T21:14:56.810Z,20.77
2018-07-07T21:17:24.198Z,9.10
2018-07-07T21:19:51.589Z,11.70
2018-07-07T21:22:18.966Z,9.13
2018-07-07T21:24:46.316Z,9.27
2018-07-07T21:27:13.696Z,15.00
2018-07-07T21:29:41.039Z,14.90
2018-07-07T21:32:08.365Z,7.27
2018-07-07T21:34:35.716Z,5.10
2018-07-07T21:37:04.206Z,9.30
2018-07-07T21:39:31.604Z,11.80
2018-07-07T21:41:58.999Z,8.70
2018-07-07T21:44:26.346Z,11.77
2018-07-07T21:46:53.760Z,22.20
2018-07-07T21:49:21.159Z,7.73
2018-07-07T21:51:48.478Z,13.60
2018-07-07T21:54:15.827Z,13.60
2018-07-07T21:56:43.234Z,12.83
2018-07-07T21:59:16.360Z,10.33
2018-07-07T22:01:57.742Z,13.13
2018-07-07T22:04:32.421Z,11.60
2018-07-07T22:07:06.996Z,12.20
2018-07-07T22:09:35.160Z,13.47
2018-07-07T22:12:02.689Z,10.20
2018-07-07T22:14:30.669Z,7.47
2018-07-07T22:16:57.988Z,6.50
2018-07-07T22:19:25.539Z,12.47
2018-07-07T22:22:03.264Z,11.70
2018-07-07T22:24:30.798Z,11.80
2018-07-07T22:27:00.279Z,13.70
2018-07-07T22:29:28.036Z,9.40
2018-07-07T22:31:56.787Z,5.80
2018-07-07T22:34:24.929Z,5.87
2018-07-07T22:36:52.552Z,9.63
2018-07-07T22:39:20.044Z,11.80
2018-07-07T22:41:56.263Z,6.50
2018-07-07T22:44:23.670Z,7.63
2018-07-07T22:46:51.693Z,7.70
2018-07-07T22:49:19.142Z,6.43
2018-07-07T22:51:46.536Z,8.30
2018-07-07T22:54:14.125Z,10.87
2018-07-07T22:56:41.822Z,10.60
2018-07-07T22:59:09.895Z,10.00
2018-07-07T23:01:37.946Z,6.20
2018-07-07T23:04:05.386Z,6.70
2018-07-07T23:06:34.144Z,9.30
2018-07-07T23:09:01.500Z,7.63
2018-07-07T23:11:28.936Z,7.37
2018-07-07T23:13:56.310Z,13.00
2018-07-07T23:16:23.753Z,16.17
2018-07-07T23:18:51.060Z,6.57
2018-07-07T23:21:18.406Z,16.07
2018-07-07T23:23:45.833Z,8.60
2018-07-07T23:26:13.240Z,8.00
2018-07-07T23:28:40.593Z,7.67
2018-07-07T23:31:07.936Z,6.80
2018-07-07T23:33:35.309Z,9.80
2018-07-07T23:36:02.711Z,6.80
2018-07-07T23:38:30.044Z,10.90
2018-07-07T23:40:57.496Z,11.23
2018-07-07T23:43:24.906Z,12.47
2018-07-07T23:45:52.287Z,15.83
2018-07-07T23:48:19.628Z,6.90
2018-07-07T23:50:47.012Z,7.77
2018-07-07T23:53:14.368Z,11.80
2018-07-07T23:55:41.864Z,10.53
2018-07-07T23:58:09.252Z,8.87
